KGUY

Guymon Municipal Airport

Guymon, Oklahoma, USA
METAR KGUY 190653Z AUTO 27010KT 10SM CLR 04/M05 A2984 RMK AO2 SNE38 SLP092 P0000 T00391050
Observed Flight Rules
Dec-19 @ 06:53 UTC (an hour ago) Visual Flight Rules
Wind Visibility Clouds
270° at 10 knots 10 miles
  • Clear skies
Temperatures Readings Precipitation
Current 4°C / 39°F
Dewpoint -5°C / 23°F
Humidity 52%
Altimeter 29.84" Hg
Pressure 1009.2 hPa
Elevation 948
Current Rain 0.005
METAR KGUY 190653Z AUTO 27010KT 10SM CLR 04/M05 A2984 RMK AO2 SNE38 SLP092 P0000 T00391050
Observed Flight Rules
Dec-19 @ 06:53 UTC
(an hour ago)
VFR
Wind Visibility
270° at 10 knots 10 miles
Clouds
  • Clear skies
Temperature Dewpoint
4°C / 39°F -5°C / 23°F
Humidity Altimeter Pressure
52% 29.84" Hg 1009.2 hPa
Current Rain
0.005